Time;durP1;ratioP1;P1;durP2;ratioP2;P2;SDS_P1;SDS_P2;PMS_P1;PMS_P2;Temp;Humidity;BMP_temperature;BMP_pressure;BME280_temperature;BME280_humidity;BME280_pressure;Samples;Min_cycle;Max_cycle;Signal;HPM_P1;HPM_P2
2021/09/05 00:01:26;;;;;;;2.60;2.00;;;;;;;7.35;71.23;99546.03;4974355;28;20073;-77
2021/09/05 00:03:52;;;;;;;3.40;2.17;;;;;;;7.27;70.99;99518.44;4992812;28;20542;-77
2021/09/05 00:06:18;;;;;;;3.45;2.22;;;;;;;7.37;71.10;99531.38;4958771;28;20413;-78
2021/09/05 00:08:44;;;;;;;3.72;2.15;;;;;;;7.30;70.81;99529.63;4977090;28;20111;-79
2021/09/05 00:11:11;;;;;;;4.90;2.50;;;;;;;7.13;70.91;99516.72;4976366;28;20165;-79
2021/09/05 00:13:37;;;;;;;3.65;1.98;;;;;;;7.28;70.67;99549.50;4992149;28;20042;-77
2021/09/05 00:16:03;;;;;;;4.60;2.13;;;;;;;7.30;70.80;99554.66;4977720;28;20056;-77
2021/09/05 00:18:29;;;;;;;3.78;2.28;;;;;;;7.18;70.61;99533.06;4975156;28;20410;-79
2021/09/05 00:20:55;;;;;;;3.45;2.00;;;;;;;7.38;70.86;99552.97;4990383;28;20057;-76
2021/09/05 00:23:21;;;;;;;2.20;1.90;;;;;;;7.46;70.95;99553.81;4991143;28;20049;-78
2021/09/05 00:26:00;;;;;;;3.33;2.03;;;;;;;7.32;70.63;99519.28;4992635;28;20668;-77
2021/09/05 00:28:26;;;;;;;4.25;1.80;;;;;;;7.52;70.87;99543.44;4976381;28;20038;-79
2021/09/05 00:30:52;;;;;;;2.83;1.60;;;;;;;7.64;70.66;99547.75;4960073;28;20549;-78
2021/09/05 00:33:17;;;;;;;2.92;2.00;;;;;;;7.78;70.27;99560.69;4977280;28;20046;-81
2021/09/05 00:35:43;;;;;;;3.65;1.90;;;;;;;7.83;70.50;99558.94;4978276;28;20045;-79
2021/09/05 00:38:10;;;;;;;2.88;1.88;;;;;;;7.87;69.91;99567.59;4996133;28;20069;-76
2021/09/05 00:40:36;;;;;;;2.90;1.90;;;;;;;7.79;70.28;99546.88;4995057;28;21608;-77
2021/09/05 00:43:02;;;;;;;3.65;1.80;;;;;;;7.88;70.01;99560.66;4993863;28;20042;-80
2021/09/05 00:45:28;;;;;;;4.15;2.13;;;;;;;7.88;69.57;99552.91;4974391;28;20034;-77
2021/09/05 00:47:53;;;;;;;3.28;2.10;;;;;;;7.83;69.48;99545.16;4943738;28;20046;-79
2021/09/05 00:50:19;;;;;;;2.80;1.98;;;;;;;7.98;69.66;99570.16;4991844;28;20128;-77
2021/09/05 00:52:45;;;;;;;4.45;2.25;;;;;;;7.89;69.59;99555.50;4990390;28;20046;-78
2021/09/05 00:55:11;;;;;;;3.08;1.95;;;;;;;8.04;69.64;99575.34;4990067;28;20050;-77
2021/09/05 00:57:44;;;;;;;2.90;2.10;;;;;;;8.04;69.31;99570.16;4980075;28;20047;-76
2021/09/05 01:00:10;;;;;;;3.65;2.25;;;;;;;8.07;69.51;99577.91;4982950;28;20050;-78
2021/09/05 01:02:37;;;;;;;3.83;2.13;;;;;;;8.08;69.41;99582.22;4981339;28;20419;-78
2021/09/05 01:05:06;;;;;;;2.60;1.85;;;;;;;7.97;69.10;99563.25;4977950;28;20053;-80
2021/09/05 01:07:33;;;;;;;3.67;1.88;;;;;;;8.11;69.19;99586.56;4984947;28;20616;-78
2021/09/05 01:10:00;;;;;;;3.78;1.88;;;;;;;8.03;68.96;99570.16;4978615;28;20069;-76
2021/09/05 01:12:26;;;;;;;2.42;1.70;;;;;;;8.17;68.86;99586.50;4974220;28;20045;-79
2021/09/05 01:14:53;;;;;;;2.72;1.77;;;;;;;8.09;68.76;99578.75;4989957;28;20105;-78
2021/09/05 01:17:18;;;;;;;3.42;1.80;;;;;;;8.11;68.72;99582.22;4956904;28;20793;-77
2021/09/05 01:20:10;;;;;;;2.63;1.80;;;;;;;8.11;68.25;99594.31;4984236;28;20042;-78
2021/09/05 01:22:55;;;;;;;3.55;1.65;;;;;;;8.06;68.72;99583.94;4976739;28;20045;-79
2021/09/05 01:25:20;;;;;;;3.38;1.90;;;;;;;8.10;68.18;99598.63;4990455;28;20154;-78
2021/09/05 01:27:49;;;;;;;1.70;1.50;;;;;;;8.16;68.63;99596.91;4975040;28;21457;-77
2021/09/05 01:30:34;;;;;;;3.13;1.42;;;;;;;8.13;68.17;99596.03;4987897;28;20489;-77
2021/09/05 01:33:09;;;;;;;3.15;1.50;;;;;;;7.87;68.05;99557.22;4957949;28;21352;-79
2021/09/05 01:35:48;;;;;;;2.70;1.55;;;;;;;7.93;68.09;99585.72;4973559;28;20089;-78
2021/09/05 01:38:46;;;;;;;2.13;1.52;;;;;;;8.05;67.69;99615.94;4955385;28;20097;-77
2021/09/05 01:41:30;;;;;;;2.50;1.88;;;;;;;7.96;67.79;99603.00;4971436;28;20419;-76
2021/09/05 01:44:22;;;;;;;2.92;1.70;;;;;;;8.02;67.69;99620.25;4974710;28;20034;-78
2021/09/05 01:47:27;;;;;;;6.32;1.40;;;;;;;8.05;68.00;99625.44;4914752;29;20039;-79
2021/09/05 01:50:25;;;;;;;3.20;1.33;;;;;;;8.13;67.72;99627.13;4894141;29;20117;-76
2021/09/05 01:53:17;;;;;;;2.17;1.60;;;;;;;8.20;67.61;99630.56;4966911;28;20065;-77
2021/09/05 01:55:42;;;;;;;1.98;1.30;;;;;;;8.25;67.37;99639.22;4990761;28;20050;-78
2021/09/05 01:58:11;;;;;;;1.48;1.30;;;;;;;8.23;66.89;99633.16;4992873;28;20038;-78
2021/09/05 02:00:55;;;;;;;1.60;1.25;;;;;;;8.23;67.08;99640.09;4990396;28;20046;-78
2021/09/05 02:03:47;;;;;;;1.90;1.17;;;;;;;8.13;66.93;99624.53;4971381;28;20069;-78
2021/09/05 02:06:35;;;;;;;3.08;1.40;;;;;;;8.21;66.88;99636.66;4978037;28;20375;-79
2021/09/05 02:09:16;;;;;;;2.65;1.35;;;;;;;8.06;66.67;99628.00;4984387;28;20144;-76
2021/09/05 02:11:59;;;;;;;2.38;1.33;;;;;;;8.17;66.42;99650.47;4986639;28;20068;-79
2021/09/05 02:14:44;;;;;;;1.45;1.27;;;;;;;8.10;66.59;99653.06;4952167;28;20148;-75
2021/09/05 02:17:38;;;;;;;2.38;1.40;;;;;;;8.14;66.70;99659.13;4909229;28;20052;-76
2021/09/05 02:20:21;;;;;;;2.15;1.08;;;;;;;7.91;66.37;99639.28;4967564;28;20073;-78
2021/09/05 02:23:17;;;;;;;1.73;1.30;;;;;;;8.02;66.47;99670.38;4967264;28;20656;-78
2021/09/05 02:26:15;;;;;;;2.58;1.02;;;;;;;7.93;66.51;99665.16;4953154;28;20077;-76
2021/09/05 02:28:59;;;;;;;1.45;1.10;;;;;;;7.98;66.34;99676.41;4984015;28;20440;-76
2021/09/05 02:32:04;;;;;;;1.15;1.08;;;;;;;7.95;66.12;99676.41;4946224;28;20116;-78
2021/09/05 02:34:48;;;;;;;2.10;1.10;;;;;;;7.94;66.19;99682.44;4945278;28;20463;-77
2021/09/05 02:37:37;;;;;;;1.27;0.90;;;;;;;7.90;66.25;99681.59;4961196;28;20054;-75
2021/09/05 02:40:22;;;;;;;1.10;1.00;;;;;;;7.91;65.98;99677.25;4987009;28;20522;-78
2021/09/05 02:43:11;;;;;;;1.05;0.95;;;;;;;7.97;66.08;99688.47;4984681;28;20046;-76
2021/09/05 02:45:59;;;;;;;1.60;1.23;;;;;;;7.87;65.99;99668.63;4977702;28;20050;-77
2021/09/05 02:48:45;;;;;;;1.60;1.20;;;;;;;8.06;65.83;99703.16;4971037;28;20061;-78
2021/09/05 02:51:46;;;;;;;1.83;1.20;;;;;;;8.08;65.98;99711.81;4926494;29;20074;-75
2021/09/05 02:54:44;;;;;;;1.73;1.20;;;;;;;8.14;65.96;99710.97;4983413;28;20086;-76
2021/09/05 02:57:29;;;;;;;3.53;1.42;;;;;;;8.15;65.95;99715.28;4960663;28;20541;-79
2021/09/05 03:00:12;;;;;;;2.88;1.20;;;;;;;8.08;65.80;99706.63;4967462;28;20084;-77
2021/09/05 03:02:56;;;;;;;2.85;1.23;;;;;;;8.12;65.63;99702.31;4969553;28;21791;-77
2021/09/05 03:05:40;;;;;;;1.23;1.08;;;;;;;8.17;65.13;99715.28;4969141;28;20050;-76
2021/09/05 03:08:38;;;;;;;1.52;1.20;;;;;;;8.26;65.95;99712.69;4945043;28;20060;-77
2021/09/05 03:11:23;;;;;;;3.15;1.30;;;;;;;8.38;65.63;99720.44;4967046;28;20076;-79
2021/09/05 03:14:12;;;;;;;1.83;1.40;;;;;;;8.39;65.14;99731.66;4986448;28;20037;-79
2021/09/05 03:17:03;;;;;;;1.23;1.00;;;;;;;8.32;65.07;99714.41;4970583;28;20652;-78
2021/09/05 03:19:55;;;;;;;1.65;1.20;;;;;;;8.43;64.97;99746.34;4971525;28;20046;-75
2021/09/05 03:22:39;;;;;;;2.40;1.08;;;;;;;8.45;65.30;99755.00;4987421;28;20045;-76
2021/09/05 03:25:26;;;;;;;1.60;1.10;;;;;;;8.38;64.87;99741.19;4973400;28;20106;-76
2021/09/05 03:28:11;;;;;;;1.00;0.93;;;;;;;8.41;64.70;99745.50;4987658;28;20060;-76
2021/09/05 03:30:55;;;;;;;2.65;1.15;;;;;;;8.50;64.90;99761.09;4978839;28;20046;-76
2021/09/05 03:33:44;;;;;;;2.35;0.98;;;;;;;8.53;65.08;99766.28;4959977;28;20050;-78
2021/09/05 03:36:47;;;;;;;1.25;1.00;;;;;;;8.50;64.57;99755.00;4963767;28;20037;-78
2021/09/05 03:39:28;;;;;;;3.13;1.10;;;;;;;8.58;64.56;99763.66;4943321;28;20479;-75
2021/09/05 03:42:29;;;;;;;2.10;1.00;;;;;;;8.62;64.39;99769.69;4931984;29;20045;-78
2021/09/05 03:45:23;;;;;;;1.92;0.90;;;;;;;8.65;64.56;99780.06;4982024;28;20054;-79
2021/09/05 03:48:14;;;;;;;2.20;1.10;;;;;;;8.68;64.42;99780.06;4990589;28;20502;-80
2021/09/05 03:50:54;;;;;;;1.35;1.00;;;;;;;8.62;64.26;99754.13;4979136;28;20050;-75
2021/09/05 03:53:20;;;;;;;1.35;1.00;;;;;;;8.76;64.05;99778.34;4976183;28;20038;-77
2021/09/05 03:55:50;;;;;;;0.90;0.80;;;;;;;8.78;63.63;99775.72;4955376;28;20057;-77
2021/09/05 03:58:17;;;;;;;0.80;0.80;;;;;;;8.79;63.79;99778.34;4954325;28;20050;-75
2021/09/05 04:00:43;;;;;;;2.28;1.00;;;;;;;8.80;63.75;99777.47;4955614;28;20046;-80
2021/09/05 04:03:11;;;;;;;3.17;1.00;;;;;;;8.67;63.41;99766.25;4954773;28;20479;-77
2021/09/05 04:05:37;;;;;;;1.83;0.95;;;;;;;8.73;63.47;99776.59;4953132;28;20166;-78
2021/09/05 04:10:37;;;;;;;1.40;0.90;;;;;;;8.79;63.13;99799.09;4967010;28;20351;-77
2021/09/05 04:13:04;;;;;;;1.52;1.17;;;;;;;8.58;62.93;99759.34;4954839;28;20042;-81
2021/09/05 04:15:30;;;;;;;1.88;0.88;;;;;;;8.80;62.85;99795.66;4955718;28;20050;-77
2021/09/05 04:17:57;;;;;;;1.88;1.10;;;;;;;8.84;62.85;99804.28;4970200;28;20058;-76
2021/09/05 04:20:23;;;;;;;2.35;1.00;;;;;;;8.77;62.84;99810.34;4970193;28;20043;-77
2021/09/05 04:22:49;;;;;;;1.20;0.88;;;;;;;8.72;62.77;99813.78;4959729;28;20091;-76
2021/09/05 04:25:15;;;;;;;1.10;0.90;;;;;;;8.66;62.75;99816.41;4961170;28;20506;-76
2021/09/05 04:27:41;;;;;;;1.30;1.05;;;;;;;8.71;63.14;99822.47;4948670;28;20085;-76
2021/09/05 04:30:09;;;;;;;1.25;0.95;;;;;;;8.80;63.25;99825.91;4976799;28;20049;-76
2021/09/05 04:32:35;;;;;;;1.17;0.90;;;;;;;8.86;62.93;99812.91;4977390;28;20039;-75
2021/09/05 04:35:01;;;;;;;1.92;0.80;;;;;;;8.95;62.80;99810.28;4976787;28;20042;-77
2021/09/05 04:37:26;;;;;;;1.00;0.80;;;;;;;9.13;62.31;99814.59;4944130;28;20050;-77
2021/09/05 04:39:53;;;;;;;2.45;1.00;;;;;;;9.17;62.47;99824.09;4977838;28;20046;-75
2021/09/05 04:42:19;;;;;;;1.38;1.00;;;;;;;9.15;61.94;99830.19;4975695;28;20039;-75
2021/09/05 04:44:45;;;;;;;1.25;0.90;;;;;;;9.15;62.04;99832.78;4957473;28;20054;-78
2021/09/05 04:47:11;;;;;;;1.60;0.93;;;;;;;9.04;61.77;99825.84;4938426;28;20034;-79
2021/09/05 04:49:37;;;;;;;1.05;0.90;;;;;;;9.08;61.70;99825.84;4976965;28;20042;-78
2021/09/05 04:52:06;;;;;;;1.48;1.02;;;;;;;9.29;61.81;99841.38;4978007;28;20197;-75
2021/09/05 04:54:33;;;;;;;1.00;0.90;;;;;;;9.45;61.74;99857.78;4980928;28;20058;-77
2021/09/05 04:56:58;;;;;;;3.08;0.90;;;;;;;9.74;61.68;99851.59;5012023;28;20026;-75
2021/09/05 04:59:24;;;;;;;0.88;0.70;;;;;;;10.05;61.68;99859.25;5006575;28;20069;-76
2021/09/05 05:01:50;;;;;;;1.00;0.80;;;;;;;10.31;61.37;99859.94;4994269;28;20126;-75
2021/09/05 05:04:15;;;;;;;1.00;0.90;;;;;;;10.60;61.19;99846.72;5009435;28;20127;-77
2021/09/05 05:06:42;;;;;;;1.00;0.90;;;;;;;11.21;60.04;99854.88;4992321;28;20042;-75
2021/09/05 05:09:10;;;;;;;2.05;0.98;;;;;;;11.90;60.25;99850.56;5009233;28;20072;-76
2021/09/05 05:11:37;;;;;;;1.05;0.80;;;;;;;12.24;58.38;99846.66;5006066;28;20101;-75
2021/09/05 05:14:03;;;;;;;1.35;0.95;;;;;;;12.15;57.60;99841.56;5008328;28;20537;-78
2021/09/05 05:16:29;;;;;;;1.85;0.80;;;;;;;11.96;57.20;99833.97;4980120;28;20046;-79
2021/09/05 05:18:54;;;;;;;0.80;0.70;;;;;;;11.85;56.71;99828.03;4972719;28;20105;-79
2021/09/05 05:21:20;;;;;;;0.70;0.70;;;;;;;11.71;56.20;99836.03;4990763;28;20137;-77
2021/09/05 05:24:19;;;;;;;1.42;1.10;;;;;;;11.55;56.13;99857.06;4970669;28;20075;-76
2021/09/05 05:26:45;;;;;;;1.25;0.90;;;;;;;11.87;56.80;99834.97;4990842;28;20073;-76
2021/09/05 05:29:11;;;;;;;0.85;0.70;;;;;;;12.87;55.64;99849.09;4975191;28;20045;-77
2021/09/05 05:31:37;;;;;;;1.00;0.75;;;;;;;13.65;55.26;99848.53;4988120;28;20046;-77
2021/09/05 05:34:03;;;;;;;1.30;0.70;;;;;;;14.23;53.31;99850.78;4968700;28;20108;-77
2021/09/05 05:36:29;;;;;;;0.93;0.82;;;;;;;14.41;52.08;99839.00;4968761;28;20042;-78
2021/09/05 05:38:54;;;;;;;0.95;0.70;;;;;;;14.58;51.78;99847.28;4987369;28;20046;-75
2021/09/05 05:41:20;;;;;;;0.73;0.60;;;;;;;14.74;51.01;99847.81;4964148;28;20098;-75
2021/09/05 05:44:10;;;;;;;1.85;0.80;;;;;;;14.72;50.24;99823.41;4979728;28;20042;-77
2021/09/05 05:46:35;;;;;;;1.30;0.82;;;;;;;14.69;49.43;99804.31;4976114;28;20082;-77
2021/09/05 05:49:01;;;;;;;1.70;0.82;;;;;;;14.73;48.81;99847.84;4986361;28;20128;-76
2021/09/05 05:51:27;;;;;;;1.27;1.15;;;;;;;14.75;48.93;99862.63;4970038;28;20073;-76
2021/09/05 05:53:52;;;;;;;1.17;0.93;;;;;;;15.29;48.73;99863.00;4988614;28;20569;-76
2021/09/05 05:56:18;;;;;;;0.85;0.80;;;;;;;15.53;47.87;99844.84;4974735;28;20066;-78
2021/09/05 05:58:44;;;;;;;1.25;1.10;;;;;;;15.82;47.58;99875.47;4951261;28;20101;-76
2021/09/05 06:01:09;;;;;;;1.88;1.17;;;;;;;15.60;46.85;99869.97;4966955;28;20058;-78
2021/09/05 06:03:36;;;;;;;4.13;1.30;;;;;;;15.23;46.05;99857.91;4967284;28;20506;-77
2021/09/05 06:06:08;;;;;;;1.20;1.08;;;;;;;14.74;47.03;99831.25;4967613;28;20042;-76
2021/09/05 06:08:40;;;;;;;3.22;1.45;;;;;;;14.77;47.25;99883.56;4965293;28;20100;-77
2021/09/05 06:11:09;;;;;;;2.10;1.20;;;;;;;14.65;47.34;99889.94;4952471;28;20145;-77
2021/09/05 06:13:35;;;;;;;4.10;2.03;;;;;;;14.61;47.74;99883.03;4969283;28;20038;-78
2021/09/05 06:16:04;;;;;;;5.05;1.60;;;;;;;14.66;47.92;99894.28;4954668;28;20057;-78
2021/09/05 06:18:35;;;;;;;3.17;1.77;;;;;;;14.66;47.65;99883.78;4949500;28;20141;-75
2021/09/05 06:21:02;;;;;;;2.40;1.33;;;;;;;14.52;47.58;99889.34;4970991;28;20125;-77
2021/09/05 06:23:28;;;;;;;2.05;1.40;;;;;;;14.10;47.45;99885.06;4985577;28;20050;-75
2021/09/05 06:25:54;;;;;;;3.30;1.40;;;;;;;13.76;47.92;99896.25;4986488;28;20498;-78
2021/09/05 06:28:22;;;;;;;2.08;1.30;;;;;;;13.48;48.11;99914.22;4986792;28;20592;-77
2021/09/05 06:30:48;;;;;;;2.30;1.38;;;;;;;13.12;48.86;99917.47;4979671;28;21095;-77
2021/09/05 06:33:24;;;;;;;2.40;1.20;;;;;;;13.07;49.70;99914.06;4952275;28;20042;-78
2021/09/05 06:36:03;;;;;;;2.20;1.40;;;;;;;13.46;51.06;99775.72;4985522;28;20149;-79
2021/09/05 06:38:28;;;;;;;1.77;1.52;;;;;;;15.42;49.45;99867.88;4984791;28;20092;-77
2021/09/05 06:40:57;;;;;;;2.80;1.80;;;;;;;16.47;47.76;99919.94;4986408;28;20495;-77
2021/09/05 06:43:42;;;;;;;1.65;1.40;;;;;;;16.50;46.63;99877.81;4972359;28;20052;-78
2021/09/05 06:46:17;;;;;;;3.50;1.27;;;;;;;18.40;46.01;99860.59;4986431;28;20042;-78
2021/09/05 06:48:52;;;;;;;2.38;1.00;;;;;;;19.41;42.75;99865.13;4986871;28;20298;-78
2021/09/05 06:51:24;;;;;;;1.10;1.00;;;;;;;19.88;40.51;99922.00;4963675;28;20053;-77
2021/09/05 06:53:53;;;;;;;1.35;1.10;;;;;;;20.29;40.14;99890.19;5059528;22;20401;-77
2021/09/05 06:56:31;;;;;;;1.10;0.98;;;;;;;20.36;38.65;99896.00;5046633;28;20059;-79
2021/09/05 06:59:04;;;;;;;2.58;1.10;;;;;;;19.58;38.57;99888.13;5031942;28;20040;-76
2021/09/05 07:01:32;;;;;;;1.00;0.90;;;;;;;18.57;39.06;99910.81;5047072;28;20147;-76
2021/09/05 07:04:11;;;;;;;1.33;1.00;;;;;;;17.71;39.99;99925.44;5047306;28;20459;-76
2021/09/05 07:07:05;;;;;;;2.40;0.85;;;;;;;16.70;40.98;99950.72;5045463;28;20503;-78
2021/09/05 07:09:31;;;;;;;1.33;0.95;;;;;;;16.00;41.13;99936.22;5033459;28;20044;-77
2021/09/05 07:12:15;;;;;;;1.40;1.00;;;;;;;14.27;41.92;99792.22;5044205;28;20065;-77
2021/09/05 07:14:41;;;;;;;1.58;1.17;;;;;;;13.73;42.81;99788.22;5062493;28;20033;-76
2021/09/05 07:17:08;;;;;;;2.65;1.10;;;;;;;14.51;43.41;99975.78;5052823;28;20048;-77
2021/09/05 07:19:43;;;;;;;1.48;1.17;;;;;;;13.13;43.44;99803.38;5026597;28;20072;-78
2021/09/05 07:22:11;;;;;;;2.25;0.98;;;;;;;14.06;44.47;99985.44;5060462;28;20056;-76
2021/09/05 07:24:38;;;;;;;2.25;1.20;;;;;;;13.59;44.94;99919.22;5046493;28;20047;-77
2021/09/05 07:27:26;;;;;;;1.70;1.10;;;;;;;13.72;45.25;99978.28;5036047;28;20051;-79
2021/09/05 07:30:01;;;;;;;2.17;0.98;;;;;;;13.51;45.38;100014.38;5036828;28;20052;-77
2021/09/05 07:32:30;;;;;;;1.92;1.17;;;;;;;12.37;45.87;99859.50;5047279;28;20137;-76
2021/09/05 07:34:58;;;;;;;;;;;;;;;12.93;46.52;100001.34;5046951;28;20036;-78
2021/09/05 07:37:30;;;;;;;1.52;1.10;;;;;;;12.27;46.81;99921.38;5063006;28;20056;-78
2021/09/05 07:39:59;;;;;;;1.27;0.95;;;;;;;12.37;47.16;99985.59;5066280;28;20110;-76
2021/09/05 07:42:52;;;;;;;1.58;1.00;;;;;;;12.32;47.77;100009.16;5021373;28;20051;-79
2021/09/05 07:45:17;;;;;;;1.95;1.33;;;;;;;11.99;47.74;99977.41;5035977;28;20856;-77
2021/09/05 07:47:48;;;;;;;5.55;1.50;;;;;;;12.05;48.54;100015.56;5067134;28;20047;-78
2021/09/05 07:50:17;;;;;;;2.37;1.30;;;;;;;11.57;48.92;99976.97;5049558;28;20037;-77
2021/09/05 07:52:54;;;;;;;1.58;1.23;;;;;;;11.73;49.25;100033.25;5047445;28;20323;-81
2021/09/05 07:55:20;;;;;;;2.13;1.55;;;;;;;11.58;49.69;100018.63;5031825;28;20033;-80
2021/09/05 07:57:52;;;;;;;1.65;1.30;;;;;;;11.58;50.49;100029.06;5051511;28;20051;-80
2021/09/05 08:00:25;;;;;;;1.75;1.50;;;;;;;11.04;50.46;99964.41;5049677;28;20060;-79
2021/09/05 08:02:51;;;;;;;1.65;1.20;;;;;;;11.39;50.60;100030.09;5034364;28;20118;-78
2021/09/05 08:05:17;;;;;;;1.65;1.33;;;;;;;11.34;51.51;100053.59;5050728;28;20162;-79
2021/09/05 08:08:15;;;;;;;1.95;1.40;;;;;;;11.21;51.24;100065.84;5043600;28;20049;-79
2021/09/05 08:10:41;;;;;;;3.42;1.60;;;;;;;10.25;51.32;99934.53;5012987;28;20055;-78
2021/09/05 08:13:15;;;;;;;2.13;1.50;;;;;;;10.98;51.89;100071.19;5040141;28;20041;-76
2021/09/05 08:15:53;;;;;;;2.35;1.40;;;;;;;10.96;52.33;100067.72;5045303;28;20044;-78
2021/09/05 08:18:19;;;;;;;2.42;1.65;;;;;;;9.85;52.27;99903.50;5034851;28;20044;-79
2021/09/05 08:20:48;;;;;;;6.68;1.67;;;;;;;9.71;52.89;99882.78;5050416;28;20459;-82
2021/09/05 08:23:15;;;;;;;2.85;1.48;;;;;;;10.51;52.91;100002.94;5033870;28;20040;-81
2021/09/05 08:26:01;;;;;;;2.10;1.20;;;;;;;11.04;53.16;100105.00;5045729;28;20520;-81
2021/09/05 08:28:40;;;;;;;2.58;1.38;;;;;;;10.15;53.40;99947.59;5046138;28;20040;-79
2021/09/05 08:31:10;;;;;;;1.90;1.30;;;;;;;10.46;54.16;99991.69;5015732;28;20066;-77
2021/09/05 08:33:51;;;;;;;;;;;;;;;11.31;54.62;100095.28;5065539;28;21379;-79
2021/09/05 08:36:39;;;;;;;1.98;1.30;;;;;;;11.03;54.95;99901.94;5037129;28;20011;-80
2021/09/05 08:39:18;;;;;;;1.65;1.45;;;;;;;14.56;53.82;100049.84;5021768;28;20040;-80
2021/09/05 08:41:58;;;;;;;1.83;1.10;;;;;;;16.01;50.52;100002.69;5023577;28;20053;-83
2021/09/05 08:44:26;;;;;;;2.85;1.20;;;;;;;16.07;47.90;100018.25;5046636;28;20508;-79
2021/09/05 08:46:53;;;;;;;1.80;1.20;;;;;;;15.29;47.41;99944.25;5014437;28;20504;-78
2021/09/05 08:49:28;;;;;;;1.50;1.17;;;;;;;15.39;46.24;100043.63;5060804;28;20131;-79
2021/09/05 08:52:13;;;;;;;1.27;1.00;;;;;;;13.99;46.23;99929.75;5041944;28;20040;-80
2021/09/05 08:54:51;;;;;;;1.88;1.23;;;;;;;14.00;47.29;100023.06;5014632;28;20046;-78
2021/09/05 08:57:22;;;;;;;1.50;1.13;;;;;;;13.31;47.56;99988.53;4997473;28;20048;-78
2021/09/05 08:59:51;;;;;;;4.22;1.20;;;;;;;13.41;48.08;100031.09;5007519;28;20068;-77
2021/09/05 09:02:17;;;;;;;2.13;1.10;;;;;;;12.82;48.11;99948.41;5023495;28;20509;-79
2021/09/05 09:04:49;;;;;;;2.00;1.13;;;;;;;13.38;47.85;100021.53;4988193;28;20068;-80
2021/09/05 09:07:19;;;;;;;1.88;1.27;;;;;;;13.97;47.73;100106.81;5029165;28;20037;-77
2021/09/05 09:10:11;;;;;;;1.50;1.30;;;;;;;14.02;47.54;100109.34;5009908;28;20068;-77
2021/09/05 09:12:49;;;;;;;1.25;1.15;;;;;;;13.84;47.57;100085.25;5030289;28;20447;-79
2021/09/05 09:15:27;;;;;;;1.67;1.17;;;;;;;14.01;47.81;100105.88;5010117;28;20043;-78
2021/09/05 09:17:57;;;;;;;2.17;1.50;;;;;;;14.01;46.80;100108.50;5025173;28;20044;-78
2021/09/05 09:20:38;;;;;;;2.83;1.35;;;;;;;13.81;47.39;100106.22;5021716;28;20126;-79
2021/09/05 09:23:24;;;;;;;1.50;1.20;;;;;;;13.39;47.55;100116.47;5025044;28;20048;-78
2021/09/05 09:25:56;;;;;;;2.03;1.02;;;;;;;13.09;47.99;100077.72;5031936;28;20578;-80
2021/09/05 09:28:32;;;;;;;2.70;1.90;;;;;;;13.22;48.25;100119.38;5037416;28;20098;-78
2021/09/05 09:31:00;;;;;;;1.70;1.33;;;;;;;13.06;48.09;100111.72;5011249;28;20045;-79
2021/09/05 09:33:28;;;;;;;2.03;1.20;;;;;;;12.85;48.08;100089.41;5025746;28;20132;-77
2021/09/05 09:36:01;;;;;;;2.45;1.10;;;;;;;12.86;47.22;100118.97;5023429;28;20396;-79
2021/09/05 09:38:32;;;;;;;1.30;1.10;;;;;;;12.44;48.21;100093.41;4994378;28;20115;-78
2021/09/05 09:41:12;;;;;;;2.00;1.30;;;;;;;12.52;48.77;100119.41;5021831;28;20048;-81
2021/09/05 09:43:55;;;;;;;1.55;1.30;;;;;;;12.53;48.86;100121.97;5037254;28;20103;-78
2021/09/05 09:46:26;;;;;;;8.02;1.90;;;;;;;12.45;48.81;100095.97;5007465;28;20045;-76
2021/09/05 09:49:02;;;;;;;2.60;1.13;;;;;;;12.68;48.44;100125.31;5047230;28;20110;-78
2021/09/05 09:52:03;;;;;;;1.90;1.00;;;;;;;12.52;48.48;100104.59;5023963;28;20049;-77
2021/09/05 09:54:39;;;;;;;2.45;1.30;;;;;;;11.36;48.55;99926.78;5024668;28;20133;-79
2021/09/05 09:57:07;;;;;;;1.55;1.25;;;;;;;12.63;48.74;100138.41;5042727;28;20119;-77
2021/09/05 09:59:32;;;;;;;2.70;1.20;;;;;;;12.63;48.64;100141.91;5058587;28;20394;-77
2021/09/05 10:01:58;;;;;;;1.98;1.20;;;;;;;11.71;48.47;99985.47;5026001;28;21605;-79
2021/09/05 10:04:28;;;;;;;1.80;1.13;;;;;;;11.63;48.59;99979.47;5040712;28;20374;-81
2021/09/05 10:07:01;;;;;;;3.72;1.42;;;;;;;12.46;48.45;100152.50;5026120;28;20047;-78
2021/09/05 10:10:38;;;;;;;4.28;1.50;;;;;;;12.09;48.94;100085.09;5031125;28;20159;-77
2021/09/05 10:13:14;;;;;;;1.02;0.90;;;;;;;11.35;48.78;99992.81;5023566;28;20048;-80
2021/09/05 10:15:53;;;;;;;3.53;1.25;;;;;;;11.99;49.23;100115.63;5029967;28;20043;-79
2021/09/05 10:18:27;;;;;;;1.10;1.00;;;;;;;12.14;49.57;100156.31;5028609;28;20049;-80
2021/09/05 10:21:07;;;;;;;3.00;1.02;;;;;;;11.03;49.30;99965.28;5031612;28;20146;-79
2021/09/05 10:23:35;;;;;;;2.58;1.13;;;;;;;12.29;49.08;100157.91;5043921;28;20155;-80
2021/09/05 10:26:09;;;;;;;2.08;1.10;;;;;;;12.17;48.96;100126.75;5048979;28;20032;-81
2021/09/05 10:28:41;;;;;;;0.98;0.95;;;;;;;12.43;49.23;100151.69;5065356;28;20048;-80
2021/09/05 10:31:11;;;;;;;2.55;1.30;;;;;;;12.59;48.93;100137.59;5032129;28;20045;-78
2021/09/05 10:33:44;;;;;;;2.15;1.27;;;;;;;12.59;48.94;100105.38;5033667;28;20041;-79
2021/09/05 10:36:12;;;;;;;1.60;1.23;;;;;;;13.22;48.70;100125.44;5065813;28;20049;-79
2021/09/05 10:38:40;;;;;;;3.35;1.50;;;;;;;13.59;48.52;100105.75;5033528;28;20480;-76
2021/09/05 10:41:09;;;;;;;1.48;1.17;;;;;;;14.40;47.58;100135.69;5077786;28;20043;-75
2021/09/05 10:43:58;;;;;;;3.63;1.15;;;;;;;14.84;46.41;100131.34;5057807;28;20431;-76
2021/09/05 10:47:27;;;;;;;1.40;1.00;;;;;;;14.99;45.80;100118.84;5059677;28;20033;-78
2021/09/05 10:50:39;;;;;;;2.72;1.30;;;;;;;14.98;44.49;100141.53;5025479;28;20044;-78
2021/09/05 10:53:24;;;;;;;1.23;1.00;;;;;;;14.72;44.17;100137.72;5049647;28;20107;-83
2021/09/05 10:56:06;;;;;;;2.67;1.10;;;;;;;14.48;44.33;100138.16;5046798;28;20539;-84
2021/09/05 10:58:39;;;;;;;;;;;;;;;14.18;44.52;100138.72;5037953;28;20059;-84
2021/09/05 11:01:20;;;;;;;1.33;1.00;;;;;;;13.78;44.33;100150.78;5042661;28;20015;-82
2021/09/05 11:04:14;;;;;;;1.85;1.55;;;;;;;13.69;45.62;100150.91;5044520;28;20049;-84
2021/09/05 11:06:44;;;;;;;2.08;1.35;;;;;;;13.69;45.43;100151.75;5049804;28;20075;-79
2021/09/05 11:09:25;;;;;;;3.30;1.20;;;;;;;13.66;45.73;100150.94;5063237;28;20554;-82
2021/09/05 11:12:01;;;;;;;3.50;1.50;;;;;;;13.75;45.69;100145.59;5021667;28;20040;-80
2021/09/05 11:14:37;;;;;;;3.03;1.70;;;;;;;13.92;45.50;100149.66;5021463;28;20053;-81
2021/09/05 11:17:17;;;;;;;2.28;1.50;;;;;;;13.93;45.36;100122.63;5033154;28;20048;-79
2021/09/05 11:19:46;;;;;;;2.08;1.40;;;;;;;14.28;45.96;100142.03;5068751;28;20043;-79
2021/09/05 11:22:27;;;;;;;1.85;1.30;;;;;;;14.59;45.29;100134.44;5046141;28;20059;-80
2021/09/05 11:25:23;;;;;;;4.47;1.40;;;;;;;14.73;44.81;100133.34;5048471;28;20048;-76
2021/09/05 11:27:56;;;;;;;2.50;1.42;;;;;;;14.84;44.36;100135.75;5047326;28;20047;-78
2021/09/05 11:30:24;;;;;;;2.58;1.50;;;;;;;14.81;44.32;100117.47;5050380;28;20082;-80
2021/09/05 11:33:12;;;;;;;2.35;1.38;;;;;;;14.78;43.91;100125.38;5051119;28;20044;-78
2021/09/05 11:36:09;;;;;;;2.25;1.42;;;;;;;14.68;44.00;100130.81;5052142;28;20555;-79
2021/09/05 11:38:54;;;;;;;;;;;;;;;;;;;;;
2021/09/05 11:41:41;;;;;;;1.58;1.10;;;;;;;13.76;45.07;100135.97;5045962;28;21089;-78
2021/09/05 11:44:07;;;;;;;3.15;1.40;;;;;;;13.85;45.37;100144.53;5050031;28;20080;-78
2021/09/05 11:46:33;;;;;;;1.77;1.27;;;;;;;14.05;44.93;100121.53;5050608;28;20090;-77
2021/09/05 11:49:02;;;;;;;2.05;1.27;;;;;;;14.37;44.43;100120.94;5031385;28;20044;-76
2021/09/05 11:51:38;;;;;;;1.70;1.30;;;;;;;14.51;44.31;100130.25;5072258;28;20040;-76
2021/09/05 11:54:07;;;;;;;1.70;1.52;;;;;;;14.43;44.09;100126.06;5050243;28;20048;-77
2021/09/05 11:56:35;;;;;;;2.65;1.30;;;;;;;14.37;43.89;100125.28;5048902;28;20044;-79
2021/09/05 11:59:10;;;;;;;1.40;1.30;;;;;;;14.42;43.96;100134.78;5060316;28;20041;-76
2021/09/05 12:01:46;;;;;;;1.83;1.50;;;;;;;14.31;43.81;100110.56;5056532;28;20048;-78
2021/09/05 12:04:13;;;;;;;2.75;1.50;;;;;;;14.50;43.44;100118.06;5069053;28;20059;-78
2021/09/05 12:06:41;;;;;;;3.65;1.40;;;;;;;14.53;43.78;100125.84;5046197;28;20048;-78
2021/09/05 12:09:11;;;;;;;2.75;1.40;;;;;;;14.37;43.57;100126.16;5076297;28;20151;-80
2021/09/05 12:12:05;;;;;;;1.75;1.50;;;;;;;14.40;43.52;100135.69;5034575;28;21161;-78
2021/09/05 12:14:37;;;;;;;1.85;1.40;;;;;;;14.50;43.71;100133.75;5067305;28;20047;-78
2021/09/05 12:17:26;;;;;;;1.40;1.30;;;;;;;14.60;43.70;100136.16;5036889;28;20089;-78